^^
Meteo Knjazevac Station Historical Data
Daily Summary for February 20, 2021 Units:  Metric    English   Both
Daily Weekly Monthly Yearly Custom
  High: Low: Average:
Temperature: 14.4 °C 8.8 °C 10.9 °C
Dew Point: 10.7 °C 6.8 °C 8.2 °C
Humidity: 90% 73% 83%
Wind Speed: 3.2km/h 0km/h 1.3km/h
Wind Gust: 8km/h - -
Wind- - West
Pressure: 1019.2 hPa 1018.2 hPa -
Precipitation: 0 mm    
Historical Graphs
 
 
Tabular Data for February 20, 2021
Time Temperature Dew Point Pressure Wind Wind Speed Wind Gust Humidity Rainfall Rate (Hourly) solar Conditions
00:00 14.4 °C 9.6 °C 1018.2 hPa WNW 1.6 km/h 3.2 km/h 73% 0 mm 0 W/m2
00:10 14.2 °C 9.6 °C 1018.2 hPa Calm   3.2 km/h 74% 0 mm 0 W/m2
00:20 13.9 °C 9.3 °C 1018.2 hPa Calm   1.6 km/h 74% 0 mm 0 W/m2
00:30 13.8 °C 9.2 °C 1018.2 hPa Calm     74% 0 mm 0 W/m2
01:00 13.1 °C 9.2 °C 1018.5 hPa Calm   1.6 km/h 77% 0 mm 0 W/m2
01:10 12.9 °C 8.9 °C 1018.5 hPa Calm   1.6 km/h 77% 0 mm 0 W/m2
01:20 12.8 °C 8.9 °C 1018.5 hPa Calm     77% 0 mm 0 W/m2
01:30 12.6 °C 8.9 °C 1018.5 hPa Calm   3.2 km/h 78% 0 mm 0 W/m2
01:40 12.4 °C 8.7 °C 1018.5 hPa Calm     78% 0 mm 0 W/m2
01:50 12.3 °C 8.6 °C 1018.5 hPa Calm   1.6 km/h 78% 0 mm 0 W/m2
02:00 12.1 °C 8.5 °C 1018.5 hPa Calm   1.6 km/h 79% 0 mm 0 W/m2
02:10 11.8 °C 8.3 °C 1018.5 hPa Calm   1.6 km/h 79% 0 mm 0 W/m2
02:20 11.6 °C 8.3 °C 1018.5 hPa NNW 1.6 km/h 1.6 km/h 80% 0 mm 0 W/m2
02:30 11.3 °C 8 °C 1018.5 hPa WNW 1.6 km/h 3.2 km/h 80% 0 mm 0 W/m2
02:40 11.1 °C 7.9 °C 1018.5 hPa NW 1.6 km/h 3.2 km/h 81% 0 mm 0 W/m2
02:50 11 °C 7.9 °C 1018.5 hPa WSW 1.6 km/h 4.8 km/h 81% 0 mm 0 W/m2
03:00 10.9 °C 8.1 °C 1018.5 hPa WNW 1.6 km/h 8 km/h 83% 0 mm 0 W/m2
03:10 10.9 °C 8.1 °C 1018.5 hPa WNW 1.6 km/h 4.8 km/h 83% 0 mm 0 W/m2
03:20 10.8 °C 8 °C 1018.5 hPa Calm   1.6 km/h 83% 0 mm 0 W/m2
03:30 10.6 °C 7.8 °C 1018.5 hPa NW 3.2 km/h 4.8 km/h 83% 0 mm 0 W/m2
03:40 10.4 °C 7.8 °C 1018.5 hPa WNW 1.6 km/h 3.2 km/h 84% 0 mm 0 W/m2
03:50 10.3 °C 7.7 °C 1018.5 hPa WNW 1.6 km/h 3.2 km/h 84% 0 mm 0 W/m2
04:00 10.2 °C 7.6 °C 1018.5 hPa West 1.6 km/h 4.8 km/h 84% 0 mm 0 W/m2
04:10 10 °C 7.4 °C 1018.5 hPa West 1.6 km/h 3.2 km/h 84% 0 mm 0 W/m2
04:20 9.8 °C 7.4 °C 1018.5 hPa Calm   3.2 km/h 85% 0 mm 0 W/m2
04:30 9.7 °C 7.3 °C 1018.5 hPa West 1.6 km/h 6.4 km/h 85% 0 mm 0 W/m2
04:40 9.6 °C 7.2 °C 1018.5 hPa West 1.6 km/h 4.8 km/h 85% 0 mm 0 W/m2
04:50 9.7 °C 7.4 °C 1018.5 hPa West 1.6 km/h 4.8 km/h 86% 0 mm 0 W/m2
05:00 9.6 °C 7.2 °C 1018.5 hPa WNW 1.6 km/h 4.8 km/h 85% 0 mm 0 W/m2
05:10 9.7 °C 7.4 °C 1018.5 hPa WNW 1.6 km/h 4.8 km/h 86% 0 mm 0 W/m2
05:20 9.5 °C 7.3 °C 1018.8 hPa NW 1.6 km/h 6.4 km/h 86% 0 mm 0 W/m2
05:30 9.3 °C 7.1 °C 1018.8 hPa WSW 1.6 km/h 4.8 km/h 86% 0 mm 0 W/m2
05:40 9.1 °C 6.8 °C 1018.8 hPa West 1.6 km/h 6.4 km/h 86% 0 mm 0 W/m2
05:50 8.9 °C 7 °C 1018.8 hPa West 3.2 km/h 4.8 km/h 88% 0 mm 9 W/m2
06:00 8.9 °C 7 °C 1018.8 hPa WSW 1.6 km/h 6.4 km/h 88% 0 mm 17 W/m2
06:10 8.8 °C 6.9 °C 1019.2 hPa West 1.6 km/h 4.8 km/h 88% 0 mm 28 W/m2
06:20 8.8 °C 7.1 °C 1019.2 hPa West 3.2 km/h 6.4 km/h 89% 0 mm 49 W/m2
06:30 8.8 °C 7.1 °C 1019.2 hPa West 3.2 km/h 4.8 km/h 89% 0 mm 71 W/m2
06:40 8.9 °C 7.2 °C 1019.2 hPa WSW 3.2 km/h 4.8 km/h 89% 0 mm 95 W/m2
06:50 9 °C 7.3 °C 1019.2 hPa WSW 3.2 km/h 4.8 km/h 89% 0 mm 123 W/m2
07:00 9.3 °C 7.7 °C 1019.2 hPa WNW 1.6 km/h 3.2 km/h 90% 0 mm 150 W/m2
07:10 9.6 °C 7.9 °C 1019.2 hPa West 1.6 km/h 4.8 km/h 89% 0 mm 170 W/m2
07:20 9.9 °C 8.2 °C 1019.2 hPa Calm   3.2 km/h 89% 0 mm 206 W/m2
07:30 10.3 °C 8.6 °C 1019.2 hPa West 1.6 km/h 3.2 km/h 89% 0 mm 238 W/m2
07:40 10.8 °C 8.9 °C 1019.2 hPa WNW 1.6 km/h 4.8 km/h 88% 0 mm 278 W/m2
07:50 11.3 °C 9.4 °C 1019.2 hPa Calm   3.2 km/h 88% 0 mm 312 W/m2
08:00 11.8 °C 9.6 °C 1019.2 hPa West 3.2 km/h 4.8 km/h 86% 0 mm 335 W/m2
08:10 12.4 °C 9.8 °C 1019.2 hPa WNW 1.6 km/h 6.4 km/h 84% 0 mm 365 W/m2
08:20 13.1 °C 10.3 °C 1019.2 hPa WSW 1.6 km/h 6.4 km/h 83% 0 mm 397 W/m2
08:30 13.9 °C 10.7 °C 1019.2 hPa WSW 1.6 km/h 4.8 km/h 81% 0 mm 437 W/m2
Knjazevac, Serbia
Compliments of Weather Underground - 2 mb